Etoile, TX

8:06 PM CDT on September 01, 2015 (GMT -0500)
Sam Rayburn Reservoir - Etoile, Texas | | Change Station
CLOSE
Current Station
Personal Weather Station
Location: Etoile, TX
Elevation: 202 ft
Nearby Weather Stations

Elev 202 ft 31.33 °N, 94.34 °W | Updated 10 minutes ago

Partly Cloudy
Partly Cloudy
79.6 °F
Feels Like 84 °F
N
0.0
Wind Variable Wind from SE
Gusts 0.0 mph

Today
High -- | Low -- °F
--% Chance of Precip.
Yesterday
High -- | Low -- °F
Precip. -- in
6:53 AM 7:41 PM
Waning Gibbous, 85% visible
Pressure 30.02 in
Visibility 10.0 miles
Clouds Clear
Heat Index 84 °F
Dew Point 73 °F
Humidity 81%
Rainfall 0.00 in
Snow Depth Not available.
UV 0 out of 12
Pollen 8.70 out of 12
Air Quality Not available.
Flu Activity Not available.
METAR KLFK 020053Z AUTO 15005KT 10SM CLR 26/21 A3003 RMK AO2 SLP164 T02610211
Pressure 30.02 in
Visibility 10.0 miles
Clouds Clear
Heat Index 84 °F
Dew Point 73 °F
Humidity 81%
Rainfall 0.00 in
Snow Depth Not available.
UV 0 out of 12
Pollen 8.70 out of 12
Air Quality Not available.
Flu Activity Not available.
METAR KLFK 020053Z AUTO 15005KT 10SM CLR 26/21 A3003 RMK AO2 SLP164 T02610211
Nowcast | as of 6:17 PM CDT on September 1, 2015

Widely scattered showers and a few thunderstorms should continue to slowly weaken in coverage and intensity as the evening continues. The more concentrated area of showers and thunderstorms should remain near and to the east of the lower Toledo Bend Reservoir of deep East Texas and west central Louisiana. Strong wind gusts and frequent cloud to ground lightning will continue to be possible with these storms this evening.

×

10-Day Weather Forecast

×

Almanac

Astronomy

Sep. 01, 2015 Rise Set
Actual Time
Civil Twilight
Nautical Twilight
Astronomical Twilight
Moon
Length of Visible Light
Length of Day
Tomorrow will be .
, % of the Moon is Illuminated

Today's Extremes

State Highs State Lows

Community

WunderPhotos

Upload Photos

1,851,663 photos uploaded!

WunderBlogs® & News

Nearby

Air Quality

  Air Quality AQ Index Pollutant
Not available.

Snow Depth

Station Depth Elevation

Earthquake Activity

City Distance Mag. Time & Date
Minimum magnitude displayed is 2.5.

Coastal Water Temperatures

Place Temperature

Stations

Nearby Weather Stations

Station Location Temp. Windchill Dew Point Humidity Wind Precip. Elev Updated Type